Time;durP1;ratioP1;P1;durP2;ratioP2;P2;SDS_P1;SDS_P2;PMS_P1;PMS_P2;Temp;Humidity;BMP_temperature;BMP_pressure;BME280_temperature;BME280_humidity;BME280_pressure;Samples;Min_cycle;Max_cycle;Signal;HPM_P1;HPM_P2
2022/12/01 00:00:49;;;;;;;;;;;;;;;;;;5058021;28;20475;-82
2022/12/01 00:03:15;;;;;;;44.85;21.77;;;;;;;;;;5077697;28;19999;-81
2022/12/01 00:05:40;;;;;;;;;;;;;;;;;;5044614;28;20396;-82
2022/12/01 00:08:05;;;;;;;47.45;21.83;;;;;;;;;;5070573;28;19943;-82
2022/12/01 00:10:32;;;;;;;45.17;20.40;;;;;;;;;;5077719;28;20526;-82
2022/12/01 00:12:57;;;;;;;;;;;;;;;;;;5074904;28;20028;-82
2022/12/01 00:15:35;;;;;;;46.17;20.63;;;;;;;;;;5056510;28;19912;-82
2022/12/01 00:18:01;;;;;;;42.78;20.38;;;;;;;;;;5052577;28;20035;-82
2022/12/01 00:20:27;;;;;;;;;;;;;;;;;;5077466;28;20409;-82
2022/12/01 00:22:52;;;;;;;44.97;21.10;;;;;;;;;;5078441;28;19959;-82
2022/12/01 00:25:17;;;;;;;;;;;;;;;;;;5062002;28;20036;-82
2022/12/01 00:27:46;;;;;;;44.85;21.88;;;;;;;;;;5059405;28;20334;-82
2022/12/01 00:30:11;;;;;;;44.42;20.58;;;;;;;;;;5076380;28;20028;-81
2022/12/01 00:32:37;;;;;;;;;;;;;;;;;;5070956;28;20043;-82
2022/12/01 00:35:03;;;;;;;50.58;21.63;;;;;;;;;;5073323;28;19919;-82
2022/12/01 00:37:28;;;;;;;;;;;;;;;;;;5062951;28;20386;-82
2022/12/01 00:39:53;;;;;;;48.45;21.52;;;;;;;;;;5075665;28;19924;-82
2022/12/01 00:42:19;;;;;;;49.28;23.30;;;;;;;;;;5089037;28;20118;-82
2022/12/01 00:44:45;;;;;;;;;;;;;;;;;;5050779;28;20037;-82
2022/12/01 00:47:10;;;;;;;46.70;21.73;;;;;;;;;;5078574;28;20232;-82
2022/12/01 00:49:35;;;;;;;;;;;;;;;;;;5085750;28;20036;-82
2022/12/01 00:52:01;;;;;;;46.88;21.35;;;;;;;;;;5065326;28;19908;-82
2022/12/01 00:54:26;;;;;;;;;;;;;;;;;;5086209;28;20361;-82
2022/12/01 00:56:52;;;;;;;50.30;21.95;;;;;;;;;;5088276;28;20731;-82
2022/12/01 00:59:17;;;;;;;;;;;;;;;;;;5085467;28;20090;-81
2022/12/01 01:01:43;;;;;;;45.60;22.05;;;;;;;;;;5078715;28;20383;-81
2022/12/01 01:04:08;;;;;;;;;;;;;;;;;;5067988;28;20132;-80
2022/12/01 01:06:34;;;;;;;48.35;21.90;;;;;;;;;;5088039;28;20011;-81
2022/12/01 01:08:59;;;;;;;;;;;;;;;;;;5068633;28;20036;-81
2022/12/01 01:11:24;;;;;;;45.40;21.65;;;;;;;;;;5082242;28;19908;-83
2022/12/01 01:13:50;;;;;;;;;;;;;;;;;;5082563;28;20028;-83
2022/12/01 01:16:16;;;;;;;46.75;21.25;;;;;;;;;;5066868;28;19908;-83
2022/12/01 01:18:42;;;;;;;43.40;20.70;;;;;;;;;;5066217;28;20459;-82
2022/12/01 01:21:07;;;;;;;;;;;;;;;;;;5062865;28;20078;-82
2022/12/01 01:23:33;;;;;;;46.40;20.80;;;;;;;;;;5062547;28;19912;-82
2022/12/01 01:25:58;;;;;;;;;;;;;;;;;;5085065;28;20092;-82
2022/12/01 01:28:23;;;;;;;38.65;17.30;;;;;;;;;;5066242;28;19916;-82
2022/12/01 01:30:49;;;;;;;;;;;;;;;;;;5066688;28;20016;-83
2022/12/01 01:33:14;;;;;;;43.53;20.25;;;;;;;;;;5055348;28;19939;-82
2022/12/01 01:35:39;;;;;;;;;;;;;;;;;;5048495;28;20476;-82
2022/12/01 01:38:29;;;;;;;46.35;19.92;;;;;;;;;;5081599;28;19920;-83
2022/12/01 01:40:55;;;;;;;;;;;;;;;;;;5047125;28;20410;-82
2022/12/01 01:43:40;;;;;;;40.67;20.30;;;;;;;;;;5062998;28;19912;-82
2022/12/01 01:46:06;;;;;;;42.35;19.35;;;;;;;;;;5054415;28;20029;-82
2022/12/01 01:48:31;;;;;;;;;;;;;;;;;;5083871;28;20024;-83
2022/12/01 01:50:57;;;;;;;42.45;19.70;;;;;;;;;;5084247;28;19915;-82
2022/12/01 01:53:22;;;;;;;;;;;;;;;;;;5080934;28;20020;-82
2022/12/01 01:55:48;;;;;;;42.00;20.15;;;;;;;;;;5044905;28;20002;-83
2022/12/01 01:58:13;;;;;;;;;;;;;;;;;;5070878;28;20071;-81
2022/12/01 02:00:39;;;;;;;37.72;19.65;;;;;;;;;;5073210;28;19923;-83
2022/12/01 02:03:04;;;;;;;;;;;;;;;;;;5038364;28;20474;-83
2022/12/01 02:05:31;;;;;;;45.13;20.40;;;;;;;;;;5053500;28;20402;-83
2022/12/01 02:07:56;;;;;;;41.67;19.83;;;;;;;;;;5063529;28;20038;-83
2022/12/01 02:10:22;;;;;;;;;;;;;;;;;;5046602;28;20524;-81
2022/12/01 02:12:53;;;;;;;45.55;21.35;;;;;;;;;;5065024;28;20007;-82
2022/12/01 02:15:26;;;;;;;44.55;19.48;;;;;;;;;;5077192;28;20036;-81
2022/12/01 02:17:57;;;;;;;42.33;19.20;;;;;;;;;;5056915;28;20111;-82
2022/12/01 02:20:32;;;;;;;40.30;19.90;;;;;;;;;;5074174;28;20032;-81
2022/12/01 02:23:16;;;;;;;40.53;19.88;;;;;;;;;;5074710;28;20040;-82
2022/12/01 02:25:47;;;;;;;40.22;19.42;;;;;;;;;;5063946;28;20059;-82
2022/12/01 02:28:27;;;;;;;39.03;18.48;;;;;;;;;;5056520;28;20036;-83
2022/12/01 02:30:54;;;;;;;40.63;19.42;;;;;;;;;;5053790;28;20129;-81
2022/12/01 02:33:28;;;;;;;42.45;20.00;;;;;;;;;;5072670;28;20451;-81
2022/12/01 02:35:53;;;;;;;40.20;19.65;;;;;;;;;;5068634;28;20373;-82
2022/12/01 02:38:19;;;;;;;;;;;;;;;;;;5081179;28;20077;-81
2022/12/01 02:40:44;;;;;;;40.40;19.85;;;;;;;;;;5076570;28;19923;-83
2022/12/01 02:43:09;;;;;;;;;;;;;;;;;;5081111;28;20111;-80
2022/12/01 02:45:45;;;;;;;44.00;20.77;;;;;;;;;;5071622;28;20037;-82
2022/12/01 02:48:11;;;;;;;42.83;20.35;;;;;;;;;;5061470;28;20064;-82
2022/12/01 02:50:37;;;;;;;41.58;19.80;;;;;;;;;;5072845;28;20070;-82
2022/12/01 02:53:02;;;;;;;;;;;;;;;;;;5071158;28;20032;-82
2022/12/01 02:55:27;;;;;;;39.10;19.42;;;;;;;;;;5054753;28;20364;-81
2022/12/01 02:57:53;;;;;;;;;;;;;;;;;;5053301;28;20044;-82
2022/12/01 03:00:19;;;;;;;38.15;19.17;;;;;;;;;;5071625;28;19912;-83
2022/12/01 03:02:47;;;;;;;;;;;;;;;;;;5076597;28;20067;-82
2022/12/01 03:05:32;;;;;;;37.10;18.73;;;;;;;;;;5070356;28;19939;-82
2022/12/01 03:08:04;;;;;;;39.75;19.75;;;;;;;;;;5071565;28;20039;-82
2022/12/01 03:10:37;;;;;;;39.95;19.10;;;;;;;;;;5071452;28;20035;-82
2022/12/01 03:13:21;;;;;;;43.05;19.52;;;;;;;;;;5070425;28;20093;-82
2022/12/01 03:15:52;;;;;;;37.38;18.77;;;;;;;;;;5080549;28;20039;-81
2022/12/01 03:18:37;;;;;;;37.38;18.90;;;;;;;;;;5048022;28;20035;-82
2022/12/01 03:21:05;;;;;;;47.10;23.00;;;;;;;;;;5070835;28;20035;-82
2022/12/01 03:23:32;;;;;;;38.50;19.83;;;;;;;;;;5075475;28;20031;-82
2022/12/01 03:25:58;;;;;;;37.35;18.60;;;;;;;;;;5068456;28;20040;-83
2022/12/01 03:28:27;;;;;;;;;;;;;;;;;;5068984;28;20028;-81
2022/12/01 03:30:54;;;;;;;40.20;18.63;;;;;;;;;;5068282;28;20027;-82
2022/12/01 03:33:21;;;;;;;39.35;18.08;;;;;;;;;;5070048;28;20149;-82
2022/12/01 03:35:52;;;;;;;38.35;18.45;;;;;;;;;;5086243;28;20064;-83
2022/12/01 03:38:18;;;;;;;42.47;19.77;;;;;;;;;;5070682;28;20403;-83
2022/12/01 03:40:44;;;;;;;39.40;19.08;;;;;;;;;;5063336;28;20024;-83
2022/12/01 03:43:11;;;;;;;39.92;18.85;;;;;;;;;;5059512;28;20503;-83
2022/12/01 03:45:40;;;;;;;39.42;18.83;;;;;;;;;;5056378;28;20025;-82
2022/12/01 03:48:06;;;;;;;34.25;18.75;;;;;;;;;;5058780;28;20040;-81
2022/12/01 03:50:31;;;;;;;;;;;;;;;;;;5038967;28;20115;-82
2022/12/01 03:53:07;;;;;;;42.97;19.33;;;;;;;;;;5061791;28;19912;-82
2022/12/01 03:55:36;;;;;;;38.05;17.60;;;;;;;;;;5064989;28;20078;-81
2022/12/01 03:58:07;;;;;;;41.13;18.75;;;;;;;;;;5021573;28;20382;-82
2022/12/01 04:00:33;;;;;;;37.00;18.48;;;;;;;;;;5063722;28;20040;-83
2022/12/01 04:02:58;;;;;;;;;;;;;;;;;;5063691;28;20056;-82
2022/12/01 04:05:48;;;;;;;37.65;17.90;;;;;;;;;;5072193;28;19932;-83
2022/12/01 04:08:14;;;;;;;36.67;18.25;;;;;;;;;;5084837;28;20055;-82
2022/12/01 04:10:39;;;;;;;;;;;;;;;;;;5046921;28;20119;-82
2022/12/01 04:13:10;;;;;;;41.67;17.60;;;;;;;;;;5078531;28;20417;-83
2022/12/01 04:15:36;;;;;;;43.70;18.63;;;;;;;;;;5057131;28;20036;-82
2022/12/01 04:18:01;;;;;;;;;;;;;;;;;;5046711;28;20035;-83
2022/12/01 04:20:27;;;;;;;35.60;17.52;;;;;;;;;;5065564;28;19919;-83
2022/12/01 04:22:52;;;;;;;;;;;;;;;;;;5077731;28;20695;-83
2022/12/01 04:25:17;;;;;;;40.53;18.67;;;;;;;;;;5057002;28;20447;-83
2022/12/01 04:27:43;;;;;;;;;;;;;;;;;;5072597;28;20028;-81
2022/12/01 04:30:09;;;;;;;40.42;19.30;;;;;;;;;;5055349;28;20302;-84
2022/12/01 04:32:38;;;;;;;38.35;18.02;;;;;;;;;;5058069;28;20116;-81
2022/12/01 04:35:05;;;;;;;40.88;21.27;;;;;;;;;;5043405;28;20045;-83
2022/12/01 04:37:34;;;;;;;40.03;19.90;;;;;;;;;;5047435;28;20024;-82
2022/12/01 04:40:03;;;;;;;39.72;18.92;;;;;;;;;;5058586;28;20047;-81
2022/12/01 04:42:28;;;;;;;;;;;;;;;;;;5045148;28;20028;-83
2022/12/01 04:44:53;;;;;;;41.15;18.05;;;;;;;;;;5070729;28;20014;-83
2022/12/01 04:47:19;;;;;;;;;;;;;;;;;;5044891;28;20036;-83
2022/12/01 04:49:45;;;;;;;41.65;18.27;;;;;;;;;;5077957;28;19916;-82
2022/12/01 04:52:10;;;;;;;;;;;;;;;;;;5078765;28;20028;-82
2022/12/01 04:54:35;;;;;;;37.17;18.60;;;;;;;;;;5043181;28;20018;-82
2022/12/01 04:57:01;;;;;;;;;;;;;;;;;;5058987;28;20020;-83
2022/12/01 04:59:27;;;;;;;40.10;18.92;;;;;;;;;;5076171;28;19999;-86
2022/12/01 05:01:52;;;;;;;;;;;;;;;;;;5060867;28;20028;-83
2022/12/01 05:04:17;;;;;;;37.83;17.63;;;;;;;;;;5073408;28;19920;-84
2022/12/01 05:06:43;;;;;;;;;;;;;;;;;;5051664;28;20679;-84
2022/12/01 05:09:09;;;;;;;38.45;18.02;;;;;;;;;;5083067;28;19912;-84
2022/12/01 05:11:34;;;;;;;;;;;;;;;;;;5055805;28;20039;-84
2022/12/01 05:14:00;;;;;;;40.22;18.88;;;;;;;;;;5065878;28;20396;-84
2022/12/01 05:16:25;;;;;;;;;;;;;;;;;;5085746;28;20103;-83
2022/12/01 05:20:55;;;;;;;44.08;19.20;;;;;;;;;;5088112;28;19912;-83
2022/12/01 05:21:37;;;;;;;41.90;19.20;;;;;;;;;;5076143;28;20036;-83
2022/12/01 05:24:02;;;;;;;;;;;;;;;;;;5063653;28;20599;-83
2022/12/01 05:26:28;;;;;;;39.42;19.95;;;;;;;;;;5067335;28;19930;-84
2022/12/01 05:28:53;;;;;;;;;;;;;;;;;;5087308;28;20028;-84
2022/12/01 05:31:18;;;;;;;38.83;18.45;;;;;;;;;;5075658;28;19919;-84
2022/12/01 05:33:44;;;;;;;;;;;;;;;;;;5081506;28;20054;-84
2022/12/01 05:36:09;;;;;;;37.42;17.33;;;;;;;;;;5063443;28;19998;-84
2022/12/01 05:38:35;;;;;;;;;;;;;;;;;;5061750;28;20030;-83
2022/12/01 05:41:00;;;;;;;41.08;18.65;;;;;;;;;;5038540;28;19978;-83
2022/12/01 05:43:25;;;;;;;;;;;;;;;;;;5051456;28;20077;-82
2022/12/01 05:45:53;;;;;;;39.35;18.73;;;;;;;;;;5045818;28;19913;-85
2022/12/01 05:48:18;;;;;;;39.03;18.83;;;;;;;;;;5067322;28;20059;-85
2022/12/01 05:50:43;;;;;;;;;;;;;;;;;;5062305;28;20083;-83
2022/12/01 05:53:12;;;;;;;39.00;18.10;;;;;;;;;;5067785;28;19908;-84
2022/12/01 05:55:37;;;;;;;;;;;;;;;;;;5061713;28;20458;-84
2022/12/01 05:58:03;;;;;;;39.63;17.98;;;;;;;;;;5050717;28;19914;-83
2022/12/01 06:00:28;;;;;;;;;;;;;;;;;;5062437;28;20036;-83
2022/12/01 06:02:53;;;;;;;35.25;17.73;;;;;;;;;;5067035;28;19912;-84
2022/12/01 06:05:19;;;;;;;;;;;;;;;;;;5057651;28;20047;-84
2022/12/01 06:07:45;;;;;;;43.53;19.75;;;;;;;;;;5071974;28;20015;-84
2022/12/01 06:10:10;;;;;;;37.40;19.13;;;;;;;;;;5072690;28;20032;-83
2022/12/01 06:12:36;;;;;;;;;;;;;;;;;;5064282;28;20028;-83
2022/12/01 06:15:03;;;;;;;43.90;18.43;;;;;;;;;;5071768;28;19962;-84
2022/12/01 06:17:28;;;;;;;;;;;;;;;;;;5072159;28;20096;-84
2022/12/01 06:19:54;;;;;;;39.42;19.58;;;;;;;;;;5088647;28;19916;-84
2022/12/01 06:22:19;;;;;;;;;;;;;;;;;;5072248;28;20036;-82
2022/12/01 06:24:44;;;;;;;60.50;29.15;;;;;;;;;;5053598;28;19911;-83
2022/12/01 06:27:10;;;;;;;;;;;;;;;;;;5071946;28;20429;-84
2022/12/01 06:29:35;;;;;;;44.60;21.83;;;;;;;;;;5086339;28;20447;-84
2022/12/01 06:32:01;;;;;;;;;;;;;;;;;;5070561;28;20112;-83
2022/12/01 06:34:26;;;;;;;37.40;18.52;;;;;;;;;;5084896;28;19912;-84
2022/12/01 06:36:51;;;;;;;;;;;;;;;;;;5062172;28;20024;-85
2022/12/01 06:39:17;;;;;;;40.50;18.92;;;;;;;;;;5064293;28;19942;-84
2022/12/01 06:41:42;;;;;;;39.70;19.90;;;;;;;;;;5052894;28;20020;-84
2022/12/01 06:44:08;;;;;;;;;;;;;;;;;;5066393;28;20515;-82
2022/12/01 06:46:34;;;;;;;36.42;18.58;;;;;;;;;;5087300;28;19912;-84
2022/12/01 06:49:00;;;;;;;38.15;18.15;;;;;;;;;;5083051;28;20067;-84
2022/12/01 06:51:26;;;;;;;;;;;;;;;;;;5087815;28;20114;-84
2022/12/01 06:53:52;;;;;;;35.30;18.13;;;;;;;;;;5065133;28;19912;-84
2022/12/01 06:56:18;;;;;;;40.83;18.30;;;;;;;;;;5060253;28;20050;-85
2022/12/01 06:58:43;;;;;;;;;;;;;;;;;;5061586;28;20028;-82
2022/12/01 07:01:09;;;;;;;35.88;17.95;;;;;;;;;;5070325;28;19915;-85
2022/12/01 07:03:34;;;;;;;37.55;18.40;;;;;;;;;;5059775;28;20067;-85
2022/12/01 07:06:00;;;;;;;;;;;;;;;;;;5070723;28;20044;-84
2022/12/01 07:08:26;;;;;;;33.22;16.38;;;;;;;;;;5070200;28;19919;-83
2022/12/01 07:10:51;;;;;;;;;;;;;;;;;;5052821;28;20059;-83
2022/12/01 07:13:16;;;;;;;35.42;17.75;;;;;;;;;;5083101;28;19909;-84
2022/12/01 07:15:42;;;;;;;;;;;;;;;;;;5080842;28;20032;-83
2022/12/01 07:18:07;;;;;;;37.88;18.33;;;;;;;;;;5081872;28;19948;-84
2022/12/01 07:20:33;;;;;;;;;;;;;;;;;;5061204;28;20138;-84
2022/12/01 07:22:58;;;;;;;39.20;18.05;;;;;;;;;;5085741;28;19954;-83
2022/12/01 07:25:23;;;;;;;;;;;;;;;;;;5060668;28;20036;-84
2022/12/01 07:27:49;;;;;;;34.60;17.65;;;;;;;;;;5086137;28;19908;-83
2022/12/01 07:30:14;;;;;;;;;;;;;;;;;;5064601;28;20058;-83
2022/12/01 07:32:40;;;;;;;33.85;17.77;;;;;;;;;;5078923;28;20014;-83
2022/12/01 07:35:05;;;;;;;;;;;;;;;;;;5085200;28;20555;-84
2022/12/01 07:37:30;;;;;;;36.78;19.20;;;;;;;;;;5086396;28;19911;-84
2022/12/01 07:39:56;;;;;;;;;;;;;;;;;;5058100;28;20040;-84
2022/12/01 07:42:21;;;;;;;35.45;18.30;;;;;;;;;;5076629;28;20042;-85
2022/12/01 07:44:47;;;;;;;;;;;;;;;;;;5093259;28;20532;-84
2022/12/01 07:47:13;;;;;;;35.05;17.92;;;;;;;;;;5090781;28;20002;-84
2022/12/01 07:49:38;;;;;;;;;;;;;;;;;;5074323;28;20384;-84
2022/12/01 07:52:04;;;;;;;33.25;18.00;;;;;;;;;;5089711;28;19988;-85
2022/12/01 07:54:29;;;;;;;;;;;;;;;;;;5062801;28;20023;-84
2022/12/01 07:56:54;;;;;;;40.63;21.38;;;;;;;;;;5078357;28;19908;-85
2022/12/01 07:59:20;;;;;;;56.30;26.48;;;;;;;;;;5085554;28;20086;-84
2022/12/01 08:01:46;;;;;;;35.97;18.83;;;;;;;;;;5049451;28;20105;-84
2022/12/01 08:04:11;;;;;;;;;;;;;;;;;;5065495;28;20571;-84
2022/12/01 08:06:36;;;;;;;37.58;18.48;;;;;;;;;;5074635;28;19912;-84
2022/12/01 08:09:02;;;;;;;;;;;;;;;;;;5093407;28;20039;-85
2022/12/01 08:11:30;;;;;;;33.97;17.10;;;;;;;;;;5079352;28;19998;-86
2022/12/01 08:13:56;;;;;;;35.35;18.90;;;;;;;;;;5045532;28;20036;-84
2022/12/01 08:16:21;;;;;;;;;;;;;;;;;;5085528;28;20085;-84
2022/12/01 08:18:48;;;;;;;38.38;19.33;;;;;;;;;;5067570;28;19995;-83
2022/12/01 08:21:16;;;;;;;36.22;18.88;;;;;;;;;;5051075;28;20020;-85
2022/12/01 08:23:44;;;;;;;33.72;18.45;;;;;;;;;;5091217;28;20028;-83
2022/12/01 08:26:09;;;;;;;;;;;;;;;;;;5052969;28;20399;-83
2022/12/01 08:28:35;;;;;;;34.17;18.70;;;;;;;;;;5055812;28;20464;-84
2022/12/01 08:31:00;;;;;;;;;;;;;;;;;;5063627;28;20541;-83
2022/12/01 08:33:27;;;;;;;35.75;17.85;;;;;;;;;;5078383;28;20014;-84
2022/12/01 08:35:53;;;;;;;38.90;18.63;;;;;;;;;;5050074;28;20028;-83
2022/12/01 08:38:18;;;;;;;;;;;;;;;;;;5060520;28;20436;-86
2022/12/01 08:40:43;;;;;;;36.95;18.33;;;;;;;;;;5075730;28;20299;-83
2022/12/01 08:43:09;;;;;;;35.55;18.42;;;;;;;;;;5086410;28;20074;-84
2022/12/01 08:45:35;;;;;;;40.10;18.98;;;;;;;;;;5067408;28;20062;-85
2022/12/01 08:48:00;;;;;;;;;;;;;;;;;;5073715;28;20035;-84
2022/12/01 08:50:26;;;;;;;34.83;17.98;;;;;;;;;;5072727;28;19967;-84
2022/12/01 08:52:51;;;;;;;38.30;18.10;;;;;;;;;;5061983;28;20032;-85
2022/12/01 08:55:17;;;;;;;;;;;;;;;;;;5037682;28;20037;-84
2022/12/01 08:57:42;;;;;;;30.90;16.92;;;;;;;;;;5074868;28;19908;-84
2022/12/01 09:00:09;;;;;;;33.50;17.65;;;;;;;;;;5066406;28;20473;-84
2022/12/01 09:02:34;;;;;;;33.25;16.98;;;;;;;;;;5079656;28;20036;-84
2022/12/01 09:08:30;;;;;;;34.97;17.73;;;;;;;;;;5083434;28;19916;-84
2022/12/01 09:10:36;;;;;;;36.45;18.13;;;;;;;;;;5059628;28;20032;-85
2022/12/01 09:13:01;;;;;;;;;;;;;;;;;;5090208;28;20085;-85
2022/12/01 09:15:26;;;;;;;36.53;18.85;;;;;;;;;;5056268;28;19912;-85
2022/12/01 09:17:52;;;;;;;36.58;19.23;;;;;;;;;;5069529;28;20027;-85
2022/12/01 09:20:17;;;;;;;;;;;;;;;;;;5077637;28;20119;-84
2022/12/01 09:22:43;;;;;;;39.13;20.25;;;;;;;;;;5077047;28;19908;-84
2022/12/01 09:25:13;;;;;;;;;;;;;;;;;;5084740;28;20036;-82
2022/12/01 09:27:39;;;;;;;43.67;22.83;;;;;;;;;;5058555;28;20343;-84
2022/12/01 09:30:04;;;;;;;;;;;;;;;;;;5062157;28;20067;-84
2022/12/01 09:32:29;;;;;;;44.67;23.25;;;;;;;;;;5061779;28;19934;-84
2022/12/01 09:34:55;;;;;;;;;;;;;;;;;;5080089;28;20040;-84
2022/12/01 09:37:20;;;;;;;46.35;22.63;;;;;;;;;;5061503;28;19943;-84
2022/12/01 09:39:46;;;;;;;;;;;;;;;;;;5083345;28;20511;-83
2022/12/01 09:42:12;;;;;;;42.08;21.23;;;;;;;;;;5076629;28;19958;-83
2022/12/01 09:44:46;;;;;;;36.50;19.92;;;;;;;;;;5042747;28;20496;-85
2022/12/01 09:47:13;;;;;;;36.45;19.35;;;;;;;;;;5059381;28;20039;-83
2022/12/01 09:49:42;;;;;;;36.25;20.67;;;;;;;;;;5044889;28;20032;-85
2022/12/01 09:52:11;;;;;;;33.72;18.65;;;;;;;;;;5080290;28;20036;-84
2022/12/01 09:54:37;;;;;;;35.72;16.80;;;;;;;;;;5063363;28;20032;-84
2022/12/01 09:57:02;;;;;;;;;;;;;;;;;;5036511;28;20546;-84
2022/12/01 09:59:30;;;;;;;32.10;17.42;;;;;;;;;;5062400;28;20006;-85
2022/12/01 10:01:58;;;;;;;35.25;18.30;;;;;;;;;;5044419;28;20035;-85
2022/12/01 10:04:33;;;;;;;38.53;18.40;;;;;;;;;;5041329;28;20067;-85
2022/12/01 10:07:03;;;;;;;34.45;18.08;;;;;;;;;;5075350;28;20032;-84
2022/12/01 10:09:32;;;;;;;36.20;19.17;;;;;;;;;;5071656;28;20039;-84
2022/12/01 10:12:00;;;;;;;35.53;19.27;;;;;;;;;;5065411;28;20032;-84
2022/12/01 10:14:26;;;;;;;33.95;18.38;;;;;;;;;;5071252;28;20067;-84
2022/12/01 10:16:51;;;;;;;;;;;;;;;;;;5069015;28;20035;-84
2022/12/01 10:19:21;;;;;;;36.33;20.38;;;;;;;;;;5088796;28;19912;-84
2022/12/01 10:21:56;;;;;;;40.40;20.67;;;;;;;;;;5082779;28;20125;-83
2022/12/01 10:24:28;;;;;;;34.95;18.30;;;;;;;;;;5076139;28;20519;-84
2022/12/01 10:27:09;;;;;;;33.80;17.35;;;;;;;;;;5087998;28;20040;-83
2022/12/01 10:29:37;;;;;;;33.85;18.00;;;;;;;;;;5084675;28;20048;-85
2022/12/01 10:32:05;;;;;;;32.63;17.77;;;;;;;;;;5071441;28;20028;-84
2022/12/01 10:34:34;;;;;;;32.40;17.63;;;;;;;;;;5066188;28;20024;-86
2022/12/01 10:37:00;;;;;;;34.50;18.38;;;;;;;;;;5070602;28;20039;-84
2022/12/01 10:39:42;;;;;;;37.85;20.50;;;;;;;;;;5045628;28;20039;-85
2022/12/01 10:42:13;;;;;;;36.67;19.15;;;;;;;;;;5053543;28;20554;-85
2022/12/01 10:44:39;;;;;;;34.83;18.38;;;;;;;;;;5067851;28;20043;-84
2022/12/01 10:47:09;;;;;;;41.35;22.10;;;;;;;;;;5067439;28;20031;-84
2022/12/01 10:49:38;;;;;;;44.55;22.65;;;;;;;;;;5062797;28;20052;-83
2022/12/01 10:52:03;;;;;;;38.47;21.05;;;;;;;;;;5044798;28;20028;-84
2022/12/01 10:54:34;;;;;;;40.17;20.75;;;;;;;;;;5053345;28;20158;-85
2022/12/01 10:56:59;;;;;;;34.28;18.60;;;;;;;;;;5077277;28;20115;-84
2022/12/01 10:59:28;;;;;;;36.42;18.95;;;;;;;;;;5063445;28;20116;-84
2022/12/01 11:01:53;;;;;;;37.17;19.25;;;;;;;;;;5061927;28;20027;-84
2022/12/01 11:04:28;;;;;;;35.97;18.92;;;;;;;;;;5039415;28;20060;-85
2022/12/01 11:06:53;;;;;;;31.60;18.00;;;;;;;;;;5080824;28;20028;-84
2022/12/01 11:09:20;;;;;;;34.58;18.23;;;;;;;;;;5071359;28;20035;-84
2022/12/01 11:11:45;;;;;;;34.47;18.48;;;;;;;;;;5048917;28;20035;-84
2022/12/01 11:14:21;;;;;;;32.40;17.83;;;;;;;;;;5053102;28;20029;-84
2022/12/01 11:16:48;;;;;;;32.95;18.65;;;;;;;;;;5050545;28;20036;-84
2022/12/01 11:19:13;;;;;;;;;;;;;;;;;;5078508;28;20403;-84
2022/12/01 11:21:45;;;;;;;31.88;16.95;;;;;;;;;;5070558;28;19912;-83
2022/12/01 11:24:15;;;;;;;33.78;17.88;;;;;;;;;;5070657;28;20036;-84
2022/12/01 11:26:41;;;;;;;34.47;18.20;;;;;;;;;;5049756;28;20041;-83
2022/12/01 11:29:09;;;;;;;35.50;18.92;;;;;;;;;;5070666;28;20048;-83
2022/12/01 11:31:41;;;;;;;37.83;18.42;;;;;;;;;;5038603;28;20032;-85
2022/12/01 11:34:17;;;;;;;39.15;19.98;;;;;;;;;;5056604;28;20036;-84
2022/12/01 11:36:43;;;;;;;40.20;20.35;;;;;;;;;;5082462;28;20047;-84
2022/12/01 11:39:17;;;;;;;41.47;20.13;;;;;;;;;;5061957;28;20436;-84
2022/12/01 11:41:43;;;;;;;38.75;18.83;;;;;;;;;;5055877;28;20398;-84
2022/12/01 11:44:14;;;;;;;41.38;19.05;;;;;;;;;;5072955;28;20016;-85
2022/12/01 11:46:40;;;;;;;35.33;17.85;;;;;;;;;;5056029;28;20384;-83
2022/12/01 11:49:07;;;;;;;34.30;17.13;;;;;;;;;;5041440;28;20032;-84
2022/12/01 11:51:36;;;;;;;41.58;18.83;;;;;;;;;;5058141;28;20115;-84
2022/12/01 11:54:14;;;;;;;43.40;18.60;;;;;;;;;;5057207;28;20112;-86
2022/12/01 11:56:39;;;;;;;35.85;18.88;;;;;;;;;;5040339;28;20035;-85
2022/12/01 11:59:11;;;;;;;33.00;18.85;;;;;;;;;;5040501;28;20013;-84
2022/12/01 12:01:46;;;;;;;34.95;18.10;;;;;;;;;;5076784;28;20031;-84
2022/12/01 12:04:15;;;;;;;36.10;17.80;;;;;;;;;;5055009;28;20530;-84
2022/12/01 12:06:46;;;;;;;33.65;16.15;;;;;;;;;;5085408;28;20028;-84
2022/12/01 12:09:15;;;;;;;36.15;18.05;;;;;;;;;;5071790;28;20479;-86
2022/12/01 12:11:49;;;;;;;33.58;16.80;;;;;;;;;;5072352;28;20182;-84
2022/12/01 12:14:20;;;;;;;32.13;16.75;;;;;;;;;;5049950;28;20508;-83
2022/12/01 12:16:49;;;;;;;31.20;16.33;;;;;;;;;;5055589;28;20036;-83
2022/12/01 12:19:38;;;;;;;33.63;17.63;;;;;;;;;;5068208;28;20020;-83
2022/12/01 12:22:20;;;;;;;29.48;15.88;;;;;;;;;;5036641;28;20040;-85
2022/12/01 12:25:04;;;;;;;30.83;16.38;;;;;;;;;;5055176;28;20097;-86
2022/12/01 12:27:33;;;;;;;35.10;16.10;;;;;;;;;;5080740;28;20025;-84
2022/12/01 12:30:07;;;;;;;35.50;16.48;;;;;;;;;;5078956;28;20395;-85
2022/12/01 12:32:43;;;;;;;32.25;16.75;;;;;;;;;;5090897;28;20056;-85
2022/12/01 12:35:15;;;;;;;29.00;15.83;;;;;;;;;;5038224;28;20028;-86
2022/12/01 12:38:24;;;;;;;27.92;14.73;;;;;;;;;;5086351;28;20086;-85
2022/12/01 12:40:55;;;;;;;31.50;15.82;;;;;;;;;;5073638;28;20042;-86
2022/12/01 12:43:21;;;;;;;28.30;16.65;;;;;;;;;;5082817;28;20460;-85
2022/12/01 12:45:49;;;;;;;27.52;15.45;;;;;;;;;;5088322;28;20111;-85
2022/12/01 12:48:19;;;;;;;27.08;15.40;;;;;;;;;;5083484;28;20471;-86
2022/12/01 12:50:44;;;;;;;30.85;15.63;;;;;;;;;;5086016;28;20044;-84
2022/12/01 12:53:14;;;;;;;30.45;15.55;;;;;;;;;;5091228;28;20036;-84
2022/12/01 12:55:44;;;;;;;29.00;15.73;;;;;;;;;;5060994;28;20033;-85
2022/12/01 12:58:20;;;;;;;33.90;15.93;;;;;;;;;;5055871;28;20514;-85
2022/12/01 13:00:48;;;;;;;28.92;16.02;;;;;;;;;;5048636;28;20036;-85
2022/12/01 13:03:15;;;;;;;33.50;16.80;;;;;;;;;;5063796;28;20479;-85
2022/12/01 13:05:44;;;;;;;32.83;20.02;;;;;;;;;;5067153;28;20586;-85
2022/12/01 13:08:14;;;;;;;30.52;16.00;;;;;;;;;;5071999;28;20040;-86
2022/12/01 13:10:46;;;;;;;34.25;16.85;;;;;;;;;;5091101;28;20035;-85
2022/12/01 13:13:15;;;;;;;29.73;16.15;;;;;;;;;;5088389;28;20052;-85
2022/12/01 13:15:41;;;;;;;33.83;16.45;;;;;;;;;;5081420;28;20505;-85
2022/12/01 13:18:27;;;;;;;30.40;15.95;;;;;;;;;;5069323;28;20060;-84
2022/12/01 13:20:53;;;;;;;34.38;16.73;;;;;;;;;;5049278;28;20051;-85
2022/12/01 13:23:20;;;;;;;;;;;;;;;;;;5070421;28;20478;-84
2022/12/01 13:25:53;;;;;;;32.28;16.30;;;;;;;;;;5089733;28;20334;-85
2022/12/01 13:28:23;;;;;;;31.98;17.55;;;;;;;;;;5072661;28;20043;-85
2022/12/01 13:31:01;;;;;;;35.85;18.17;;;;;;;;;;5082776;28;20127;-84
2022/12/01 13:33:27;;;;;;;35.58;18.60;;;;;;;;;;5060636;28;20028;-86
2022/12/01 13:35:52;;;;;;;32.72;17.50;;;;;;;;;;5037238;28;20025;-85
2022/12/01 13:38:43;;;;;;;33.42;16.65;;;;;;;;;;5059114;28;20460;-84
2022/12/01 13:41:08;;;;;;;;;;;;;;;;;;5063567;28;20119;-84
2022/12/01 13:43:33;;;;;;;34.55;17.88;;;;;;;;;;5067927;28;19935;-85
2022/12/01 13:46:01;;;;;;;34.17;17.65;;;;;;;;;;5062209;28;20032;-85
2022/12/01 13:48:27;;;;;;;30.55;16.58;;;;;;;;;;5050387;28;20406;-84
2022/12/01 13:50:53;;;;;;;35.15;17.60;;;;;;;;;;5043794;28;20561;-83
2022/12/01 13:53:19;;;;;;;31.38;15.98;;;;;;;;;;5053419;28;20027;-85
2022/12/01 13:55:44;;;;;;;;;;;;;;;;;;5059433;28;20102;-83
2022/12/01 13:58:12;;;;;;;30.55;15.75;;;;;;;;;;5076994;28;19907;-85
2022/12/01 14:00:38;;;;;;;30.30;16.08;;;;;;;;;;5059650;28;20535;-85
2022/12/01 14:03:04;;;;;;;;;;;;;;;;;;5059178;28;20043;-85
2022/12/01 14:05:38;;;;;;;29.35;14.48;;;;;;;;;;5071465;28;19920;-85
2022/12/01 14:08:24;;;;;;;29.10;15.38;;;;;;;;;;5070871;28;20070;-84
2022/12/01 14:11:10;;;;;;;28.10;14.45;;;;;;;;;;5067503;28;20181;-85
2022/12/01 14:14:01;;;;;;;30.60;14.68;;;;;;;;;;5065339;28;20064;-85
2022/12/01 14:16:46;;;;;;;29.42;15.15;;;;;;;;;;5059328;28;20463;-85
2022/12/01 14:19:24;;;;;;;30.83;15.95;;;;;;;;;;5072425;28;20519;-84
2022/12/01 14:21:50;;;;;;;33.10;17.23;;;;;;;;;;5067496;28;20044;-85
2022/12/01 14:24:15;;;;;;;;;;;;;;;;;;5072408;28;20086;-86
2022/12/01 14:26:44;;;;;;;30.38;16.20;;;;;;;;;;5061241;28;19920;-85
2022/12/01 14:29:22;;;;;;;34.60;15.15;;;;;;;;;;5061938;28;20119;-84
2022/12/01 14:31:48;;;;;;;32.88;16.48;;;;;;;;;;5079919;28;20070;-86
2022/12/01 14:34:14;;;;;;;;;;;;;;;;;;5063072;28;20028;-85
2022/12/01 14:36:49;;;;;;;35.45;16.67;;;;;;;;;;5084647;28;19918;-85
2022/12/01 14:39:21;;;;;;;36.58;17.80;;;;;;;;;;5082936;28;20074;-83
2022/12/01 14:41:47;;;;;;;35.63;18.25;;;;;;;;;;5050934;28;20120;-85
2022/12/01 14:44:19;;;;;;;40.13;18.45;;;;;;;;;;5064195;28;20016;-85
2022/12/01 14:46:51;;;;;;;39.90;18.95;;;;;;;;;;5060140;28;20024;-85
2022/12/01 14:49:24;;;;;;;37.15;16.65;;;;;;;;;;5062890;28;20519;-85
2022/12/01 14:51:52;;;;;;;37.28;19.13;;;;;;;;;;5066845;28;20032;-84
2022/12/01 14:54:19;;;;;;;36.92;17.50;;;;;;;;;;5063034;28;20024;-85
2022/12/01 14:56:46;;;;;;;37.85;19.27;;;;;;;;;;5058202;28;20492;-85
2022/12/01 14:59:19;;;;;;;42.20;18.60;;;;;;;;;;5059624;28;20449;-86